Time;durP1;ratioP1;P1;durP2;ratioP2;P2;SDS_P1;SDS_P2;PMS_P1;PMS_P2;Temp;Humidity;BMP_temperature;BMP_pressure;BME280_temperature;BME280_humidity;BME280_pressure;Samples;Min_cycle;Max_cycle;Signal;HPM_P1;HPM_P2
2020/12/05 00:02:17;;;;;;;12.40;6.63;;;;;;;;;;6204204;28;20034;-74
2020/12/05 00:05:17;;;;;;;11.05;6.93;;;;;;;;;;6222222;28;20475;-74
2020/12/05 00:08:17;;;;;;;13.30;7.77;;;;;;;;;;6205264;28;20124;-74
2020/12/05 00:11:27;;;;;;;12.27;8.07;;;;;;;;;;6207500;28;20049;-74
2020/12/05 00:14:27;;;;;;;13.02;7.75;;;;;;;;;;6211854;28;20064;-74
2020/12/05 00:17:28;;;;;;;14.30;8.73;;;;;;;;;;6204434;28;20117;-74
2020/12/05 00:20:28;;;;;;;14.00;8.47;;;;;;;;;;6223247;28;20038;-74
2020/12/05 00:23:28;;;;;;;16.40;9.57;;;;;;;;;;6209388;28;20117;-74
2020/12/05 00:26:29;;;;;;;18.00;10.33;;;;;;;;;;6213943;28;20121;-74
2020/12/05 00:29:29;;;;;;;22.43;11.37;;;;;;;;;;6215200;28;20113;-74
2020/12/05 00:32:29;;;;;;;19.03;11.03;;;;;;;;;;6213605;28;20038;-74
2020/12/05 00:35:29;;;;;;;18.33;10.10;;;;;;;;;;6217736;28;20063;-73
2020/12/05 00:38:30;;;;;;;20.03;10.57;;;;;;;;;;6205330;28;20022;-73
2020/12/05 00:41:30;;;;;;;25.67;11.67;;;;;;;;;;6200293;28;20079;-74
2020/12/05 00:44:30;;;;;;;21.80;11.63;;;;;;;;;;6199623;28;20441;-73
2020/12/05 00:47:30;;;;;;;19.27;10.87;;;;;;;;;;6211149;28;20037;-74
2020/12/05 00:50:31;;;;;;;22.80;11.83;;;;;;;;;;6208456;28;20121;-73
2020/12/05 00:53:31;;;;;;;20.60;11.77;;;;;;;;;;6195944;28;20590;-73
2020/12/05 00:56:31;;;;;;;23.30;12.07;;;;;;;;;;6214360;28;20087;-74
2020/12/05 00:59:32;;;;;;;22.13;11.93;;;;;;;;;;6207439;28;20053;-67
2020/12/05 01:02:32;;;;;;;23.90;12.13;;;;;;;;;;6205150;28;20030;-71
2020/12/05 01:05:33;;;;;;;22.30;12.13;;;;;;;;;;6209162;28;20034;-73
2020/12/05 01:08:33;;;;;;;21.33;12.50;;;;;;;;;;6205100;28;20030;-73
2020/12/05 01:11:33;;;;;;;21.97;12.23;;;;;;;;;;6208819;28;20725;-73
2020/12/05 01:14:33;;;;;;;20.83;12.20;;;;;;;;;;6213171;28;20060;-73
2020/12/05 01:17:35;;;;;;;22.00;11.83;;;;;;;;;;6208137;28;20365;-74
2020/12/05 01:20:36;;;;;;;22.98;11.90;;;;;;;;;;6206714;28;20113;-73
2020/12/05 01:23:37;;;;;;;23.37;11.90;;;;;;;;;;6216909;28;20044;-73
2020/12/05 01:26:37;;;;;;;22.73;11.52;;;;;;;;;;6203403;28;20033;-73
2020/12/05 01:29:37;;;;;;;19.60;11.77;;;;;;;;;;6210669;28;20029;-74
2020/12/05 01:32:38;;;;;;;23.60;11.63;;;;;;;;;;6209694;28;20026;-73
2020/12/05 01:35:38;;;;;;;20.67;11.23;;;;;;;;;;6224829;28;20072;-73
2020/12/05 01:38:38;;;;;;;22.73;12.07;;;;;;;;;;6210408;28;20022;-74
2020/12/05 01:41:39;;;;;;;21.70;11.77;;;;;;;;;;6209477;28;20026;-73
2020/12/05 01:44:40;;;;;;;20.02;11.10;;;;;;;;;;6207256;28;20652;-73
2020/12/05 01:47:40;;;;;;;19.07;11.67;;;;;;;;;;6211237;28;20026;-73
2020/12/05 01:50:40;;;;;;;22.10;11.70;;;;;;;;;;6218732;28;20018;-73
2020/12/05 01:53:40;;;;;;;21.07;12.40;;;;;;;;;;6214900;28;20684;-73
2020/12/05 01:56:42;;;;;;;21.57;12.43;;;;;;;;;;6207984;28;20018;-73
2020/12/05 01:59:42;;;;;;;18.73;11.60;;;;;;;;;;6224780;28;20021;-73
2020/12/05 02:02:43;;;;;;;20.83;12.40;;;;;;;;;;6212947;28;20029;-73
2020/12/05 02:06:02;;;;;;;22.57;10.93;;;;;;;;;;6211221;28;20050;-73
2020/12/05 02:09:09;;;;;;;21.83;12.18;;;;;;;;;;6218394;28;20099;-73
2020/12/05 02:12:09;;;;;;;21.95;12.40;;;;;;;;;;6209887;28;20026;-73
2020/12/05 02:15:13;;;;;;;19.27;10.23;;;;;;;;;;6210830;28;20026;-73
2020/12/05 02:18:14;;;;;;;21.83;12.85;;;;;;;;;;6214832;28;20424;-73
2020/12/05 02:21:15;;;;;;;22.87;11.90;;;;;;;;;;6213205;28;20086;-73
2020/12/05 02:24:16;;;;;;;19.70;11.50;;;;;;;;;;6227066;28;20844;-73
2020/12/05 02:27:16;;;;;;;19.53;11.50;;;;;;;;;;6209567;28;20418;-72
2020/12/05 02:30:17;;;;;;;20.48;11.20;;;;;;;;;;6212238;28;20079;-72
2020/12/05 02:33:17;;;;;;;18.87;11.00;;;;;;;;;;6212320;28;20408;-72
2020/12/05 02:36:18;;;;;;;21.60;11.50;;;;;;;;;;6217808;28;20026;-73
2020/12/05 02:39:18;;;;;;;20.63;10.60;;;;;;;;;;6214042;28;20030;-73
2020/12/05 02:42:19;;;;;;;19.63;11.30;;;;;;;;;;6205157;28;20164;-73
2020/12/05 02:45:19;;;;;;;18.20;11.53;;;;;;;;;;6231485;28;20161;-73
2020/12/05 02:48:19;;;;;;;20.67;10.80;;;;;;;;;;6208963;28;20736;-73
2020/12/05 02:51:20;;;;;;;20.83;11.67;;;;;;;;;;6216456;28;20053;-73
2020/12/05 02:54:20;;;;;;;21.97;12.00;;;;;;;;;;6210174;28;20037;-72
2020/12/05 02:57:20;;;;;;;19.07;11.07;;;;;;;;;;6219657;28;20038;-72
2020/12/05 03:00:21;;;;;;;19.90;11.77;;;;;;;;;;6219783;28;20053;-72
2020/12/05 03:03:21;;;;;;;20.50;11.52;;;;;;;;;;6217228;28;20036;-72
2020/12/05 03:06:22;;;;;;;23.93;12.80;;;;;;;;;;5868943;28;10000481;-72
2020/12/05 03:09:22;;;;;;;24.97;12.87;;;;;;;;;;6211031;28;20052;-72
2020/12/05 03:12:22;;;;;;;19.27;11.17;;;;;;;;;;6211911;28;20014;-72
2020/12/05 03:15:22;;;;;;;23.73;12.23;;;;;;;;;;6217767;28;20116;-73
2020/12/05 03:18:23;;;;;;;23.00;12.47;;;;;;;;;;6214936;28;20141;-72
2020/12/05 03:21:23;;;;;;;21.03;12.37;;;;;;;;;;6217149;28;20022;-73
2020/12/05 03:24:23;;;;;;;22.33;13.13;;;;;;;;;;6223035;28;20058;-72
2020/12/05 03:27:23;;;;;;;21.50;12.50;;;;;;;;;;6212454;28;20029;-73
2020/12/05 03:30:24;;;;;;;23.53;12.70;;;;;;;;;;6211540;28;20026;-73
2020/12/05 03:33:24;;;;;;;23.23;12.40;;;;;;;;;;6212120;28;20030;-73
2020/12/05 03:36:24;;;;;;;22.00;12.30;;;;;;;;;;6210406;28;20034;-73
2020/12/05 03:39:24;;;;;;;30.47;14.23;;;;;;;;;;6217399;28;20427;-73
2020/12/05 03:42:25;;;;;;;28.10;13.70;;;;;;;;;;6204738;28;20135;-73
2020/12/05 03:45:25;;;;;;;25.30;14.13;;;;;;;;;;6215888;28;20023;-73
2020/12/05 03:48:25;;;;;;;23.30;13.23;;;;;;;;;;6218015;28;20026;-72
2020/12/05 03:51:26;;;;;;;26.27;13.57;;;;;;;;;;6211907;28;20419;-72
2020/12/05 03:54:26;;;;;;;25.37;12.97;;;;;;;;;;6209297;28;20511;-72
2020/12/05 03:57:27;;;;;;;25.33;12.60;;;;;;;;;;6214775;28;20029;-72
2020/12/05 04:00:30;;;;;;;26.33;12.43;;;;;;;;;;6220419;28;20018;-72
2020/12/05 04:03:30;;;;;;;24.52;12.45;;;;;;;;;;6211149;28;20037;-72
2020/12/05 04:06:30;;;;;;;21.77;12.07;;;;;;;;;;6210519;28;20053;-72
2020/12/05 04:09:31;;;;;;;25.13;12.57;;;;;;;;;;6213451;28;20026;-72
2020/12/05 04:12:31;;;;;;;22.63;12.10;;;;;;;;;;6207321;28;20037;-72
2020/12/05 04:15:31;;;;;;;27.00;13.03;;;;;;;;;;6222320;28;20030;-72
2020/12/05 04:18:31;;;;;;;23.70;12.10;;;;;;;;;;6217980;28;20040;-72
2020/12/05 04:21:32;;;;;;;24.23;12.93;;;;;;;;;;6213673;28;20025;-72
2020/12/05 04:24:32;;;;;;;21.67;11.30;;;;;;;;;;6217353;28;20448;-72
2020/12/05 04:27:32;;;;;;;20.60;11.37;;;;;;;;;;6211320;28;20022;-72
2020/12/05 04:30:33;;;;;;;25.50;12.37;;;;;;;;;;6228643;28;20018;-72
2020/12/05 04:33:33;;;;;;;25.47;12.47;;;;;;;;;;6211055;28;20030;-72
2020/12/05 04:36:33;;;;;;;21.90;11.43;;;;;;;;;;6217184;28;20026;-72
2020/12/05 04:39:33;;;;;;;24.63;12.63;;;;;;;;;;6212782;28;20031;-72
2020/12/05 04:42:42;;;;;;;24.57;12.60;;;;;;;;;;6211217;28;20037;-71
2020/12/05 04:45:42;;;;;;;25.50;12.40;;;;;;;;;;6212432;28;20023;-72
2020/12/05 04:48:43;;;;;;;21.57;11.97;;;;;;;;;;6201905;28;20116;-72
2020/12/05 04:51:47;;;;;;;24.60;12.97;;;;;;;;;;6204650;28;20279;-72
2020/12/05 04:54:51;;;;;;;23.58;11.93;;;;;;;;;;6211030;28;20164;-72
2020/12/05 04:58:02;;;;;;;27.90;12.80;;;;;;;;;;6212794;28;20029;-72
2020/12/05 05:01:02;;;;;;;27.17;13.23;;;;;;;;;;6210230;28;20022;-72
2020/12/05 05:04:03;;;;;;;25.10;12.53;;;;;;;;;;6209261;28;20022;-72
2020/12/05 05:07:05;;;;;;;26.70;13.07;;;;;;;;;;6210392;28;20048;-72
2020/12/05 05:10:14;;;;;;;23.05;12.40;;;;;;;;;;6215428;28;20034;-72
2020/12/05 05:13:17;;;;;;;25.15;12.68;;;;;;;;;;6215567;28;20034;-72
2020/12/05 05:16:18;;;;;;;25.88;12.57;;;;;;;;;;6210252;28;20066;-72
2020/12/05 05:19:22;;;;;;;24.20;12.60;;;;;;;;;;6211719;28;20034;-71
2020/12/05 05:22:22;;;;;;;26.60;12.52;;;;;;;;;;6215343;28;20120;-72
2020/12/05 05:25:22;;;;;;;24.03;12.53;;;;;;;;;;6218592;28;20028;-72
2020/12/05 05:28:28;;;;;;;24.90;13.50;;;;;;;;;;6218445;28;20511;-71
2020/12/05 05:31:44;;;;;;;29.55;14.02;;;;;;;;;;6213826;28;20468;-72
2020/12/05 05:34:46;;;;;;;29.58;14.00;;;;;;;;;;6219528;28;20026;-72
2020/12/05 05:37:46;;;;;;;26.27;13.05;;;;;;;;;;6215099;28;20036;-71
2020/12/05 05:40:47;;;;;;;26.80;13.27;;;;;;;;;;6221226;28;20033;-72
2020/12/05 05:44:03;;;;;;;25.97;13.20;;;;;;;;;;6215684;28;20030;-72
2020/12/05 05:47:04;;;;;;;29.25;13.88;;;;;;;;;;6221138;28;20030;-71
2020/12/05 05:50:25;;;;;;;24.13;12.75;;;;;;;;;;6225429;28;20463;-71
2020/12/05 05:53:25;;;;;;;23.02;12.32;;;;;;;;;;6226978;28;20026;-71
2020/12/05 05:56:25;;;;;;;24.10;12.50;;;;;;;;;;6210268;28;20036;-71
2020/12/05 05:59:27;;;;;;;24.30;12.83;;;;;;;;;;6216827;28;20096;-71
2020/12/05 06:02:30;;;;;;;25.27;13.15;;;;;;;;;;6221273;28;20396;-71
2020/12/05 06:05:33;;;;;;;25.83;13.30;;;;;;;;;;6213621;28;20065;-72
2020/12/05 06:08:35;;;;;;;27.50;13.38;;;;;;;;;;6217457;28;20033;-72
2020/12/05 06:11:35;;;;;;;26.92;13.10;;;;;;;;;;6216037;28;20033;-72
2020/12/05 06:14:36;;;;;;;22.10;12.70;;;;;;;;;;6223280;28;20069;-71
2020/12/05 06:17:36;;;;;;;20.00;11.83;;;;;;;;;;6215765;28;20169;-71
2020/12/05 06:20:37;;;;;;;21.33;11.60;;;;;;;;;;6212499;28;20365;-72
2020/12/05 06:23:39;;;;;;;25.40;13.00;;;;;;;;;;6226280;28;20026;-71
2020/12/05 06:26:41;;;;;;;23.05;12.75;;;;;;;;;;6216152;28;20031;-71
2020/12/05 06:29:41;;;;;;;;;;;;;;;;;;6211080;28;20022;-67
2020/12/05 06:32:41;;;;;;;19.10;10.65;;;;;;;;;;6211745;28;20382;-67
2020/12/05 06:35:41;;;;;;;23.23;11.97;;;;;;;;;;6213391;28;20105;-69
2020/12/05 06:38:42;;;;;;;20.37;11.63;;;;;;;;;;6212439;28;20060;-75
2020/12/05 06:41:47;;;;;;;24.00;12.33;;;;;;;;;;6215250;28;20036;-75
2020/12/05 06:44:50;;;;;;;18.60;11.00;;;;;;;;;;6212344;28;21596;-75
2020/12/05 06:47:50;;;;;;;24.98;12.25;;;;;;;;;;6212986;28;20027;-74
2020/12/05 06:50:50;;;;;;;21.80;12.00;;;;;;;;;;6212243;28;20052;-75
2020/12/05 06:53:50;;;;;;;20.97;12.07;;;;;;;;;;6218789;28;20021;-75
2020/12/05 06:57:10;;;;;;;22.43;12.53;;;;;;;;;;6206374;28;20030;-75
2020/12/05 07:00:24;;;;;;;23.20;11.80;;;;;;;;;;6208015;28;20203;-75
2020/12/05 07:03:26;;;;;;;22.02;12.88;;;;;;;;;;6215422;28;20033;-75
2020/12/05 07:06:26;;;;;;;21.92;12.38;;;;;;;;;;6211485;28;20069;-75
2020/12/05 07:09:43;;;;;;;23.03;11.93;;;;;;;;;;6211112;28;20436;-75
2020/12/05 07:12:43;;;;;;;20.38;11.45;;;;;;;;;;6207029;28;20156;-76
2020/12/05 07:15:44;;;;;;;18.53;11.13;;;;;;;;;;6215927;28;20511;-75
2020/12/05 07:18:46;;;;;;;23.60;12.17;;;;;;;;;;6212757;28;20021;-76
2020/12/05 07:21:46;;;;;;;;;;;;;;;;;;6212190;28;20296;-76
2020/12/05 07:24:46;;;;;;;19.38;11.10;;;;;;;;;;6215690;28;19917;-77
2020/12/05 07:27:47;;;;;;;18.60;11.33;;;;;;;;;;6209816;28;20030;-75
2020/12/05 07:30:49;;;;;;;21.92;12.75;;;;;;;;;;6217453;28;20578;-76
2020/12/05 07:33:50;;;;;;;23.05;12.73;;;;;;;;;;6200182;28;20065;-75
2020/12/05 07:36:50;;;;;;;21.67;12.13;;;;;;;;;;6216529;28;20330;-75
2020/12/05 07:39:51;;;;;;;19.00;11.07;;;;;;;;;;6212804;28;20361;-75
2020/12/05 07:42:52;;;;;;;20.33;12.05;;;;;;;;;;6202491;28;20680;-76
2020/12/05 07:45:53;;;;;;;18.35;11.90;;;;;;;;;;6209597;28;20068;-76
2020/12/05 07:48:53;;;;;;;21.60;12.32;;;;;;;;;;6209706;28;20481;-76
2020/12/05 07:51:53;;;;;;;19.47;11.63;;;;;;;;;;6203248;28;20022;-75
2020/12/05 07:54:57;;;;;;;21.83;11.80;;;;;;;;;;6210613;28;20036;-78
2020/12/05 07:57:57;;;;;;;18.33;11.73;;;;;;;;;;6200198;28;20452;-71
2020/12/05 08:00:57;;;;;;;18.10;11.10;;;;;;;;;;6211671;28;20034;-80
2020/12/05 08:04:16;;;;;;;17.33;11.50;;;;;;;;;;6204683;28;20036;-79
2020/12/05 08:07:36;;;;;;;20.83;11.55;;;;;;;;;;6217797;28;20420;-77
2020/12/05 08:10:36;;;;;;;18.98;10.20;;;;;;;;;;5856117;28;10001216;-79
2020/12/05 08:13:36;;;;;;;19.50;11.47;;;;;;;;;;6203234;28;20240;-69
2020/12/05 08:16:38;;;;;;;27.70;11.40;;;;;;;;;;6202015;28;20112;-69
2020/12/05 08:19:41;;;;;;;18.95;11.75;;;;;;;;;;6206327;28;20124;-79
2020/12/05 08:22:42;;;;;;;20.90;12.23;;;;;;;;;;6209935;28;20038;-79
2020/12/05 08:25:42;;;;;;;21.60;11.70;;;;;;;;;;6205784;28;20032;-79
2020/12/05 08:28:43;;;;;;;22.47;12.17;;;;;;;;;;6198132;28;20026;-79
2020/12/05 08:31:43;;;;;;;18.80;11.63;;;;;;;;;;6196164;28;20034;-79
2020/12/05 08:34:44;;;;;;;18.73;11.53;;;;;;;;;;6204953;28;20062;-78
2020/12/05 08:37:45;;;;;;;19.43;11.13;;;;;;;;;;6216519;28;20026;-79
2020/12/05 08:40:45;;;;;;;17.75;10.82;;;;;;;;;;6209030;28;20030;-78
2020/12/05 08:43:45;;;;;;;18.03;10.77;;;;;;;;;;6212026;28;20037;-73
2020/12/05 08:46:46;;;;;;;18.97;11.03;;;;;;;;;;6204222;28;20025;-75
2020/12/05 08:49:50;;;;;;;17.17;10.67;;;;;;;;;;6210285;28;20026;-80
2020/12/05 08:52:51;;;;;;;20.10;10.57;;;;;;;;;;6222612;28;20022;-79
2020/12/05 08:55:51;;;;;;;;;;;;;;;;;;6221478;28;20026;-80
2020/12/05 08:58:52;;;;;;;15.02;9.52;;;;;;;;;;6219492;28;19957;-80
2020/12/05 09:01:52;;;;;;;16.83;9.93;;;;;;;;;;6217629;28;20033;-80
2020/12/05 09:05:00;;;;;;;19.00;10.43;;;;;;;;;;6207435;28;20025;-80
2020/12/05 09:08:00;;;;;;;15.60;10.65;;;;;;;;;;6225498;28;20723;-80
2020/12/05 09:11:01;;;;;;;17.50;10.77;;;;;;;;;;6225221;28;20018;-81
2020/12/05 09:14:01;;;;;;;18.60;10.37;;;;;;;;;;6215341;28;20274;-81
2020/12/05 09:17:02;;;;;;;15.93;10.27;;;;;;;;;;6219930;28;20044;-81
2020/12/05 09:20:16;;;;;;;17.13;10.90;;;;;;;;;;6221991;28;20029;-75
2020/12/05 09:23:26;;;;;;;15.18;10.43;;;;;;;;;;6215109;28;20285;-76
2020/12/05 09:26:26;;;;;;;16.33;9.88;;;;;;;;;;6219709;28;20459;-76
2020/12/05 09:29:26;;;;;;;17.13;10.10;;;;;;;;;;6222708;28;20022;-74
2020/12/05 09:32:59;;;;;;;16.27;10.63;;;;;;;;;;6218043;28;20058;-77
2020/12/05 09:35:59;;;;;;;17.05;10.68;;;;;;;;;;6221132;28;20439;-77
2020/12/05 09:39:00;;;;;;;16.77;10.63;;;;;;;;;;6214707;28;20022;-78
2020/12/05 09:42:00;;;;;;;17.50;10.90;;;;;;;;;;6220739;28;20030;-77
2020/12/05 09:45:00;;;;;;;14.13;9.23;;;;;;;;;;6217608;28;20132;-77
2020/12/05 09:48:00;;;;;;;15.50;10.47;;;;;;;;;;6215141;28;20022;-77
2020/12/05 09:51:01;;;;;;;17.00;11.17;;;;;;;;;;6215630;28;20053;-77
2020/12/05 09:54:01;;;;;;;16.33;10.07;;;;;;;;;;6222420;28;20506;-78
2020/12/05 09:57:02;;;;;;;17.20;10.53;;;;;;;;;;6217963;28;20045;-77
2020/12/05 10:00:07;;;;;;;18.60;10.50;;;;;;;;;;6217125;28;20747;-77
2020/12/05 10:03:07;;;;;;;16.20;10.57;;;;;;;;;;6219261;28;20100;-77
2020/12/05 10:06:07;;;;;;;16.73;11.00;;;;;;;;;;6224389;28;20018;-77
2020/12/05 10:09:07;;;;;;;18.40;10.67;;;;;;;;;;6218577;28;20022;-78
2020/12/05 10:12:08;;;;;;;18.37;10.27;;;;;;;;;;6226057;28;20108;-77
2020/12/05 10:15:08;;;;;;;15.03;10.17;;;;;;;;;;6219721;28;20030;-77
2020/12/05 10:18:08;;;;;;;16.03;10.00;;;;;;;;;;6222097;28;20026;-77
2020/12/05 10:21:09;;;;;;;16.30;10.33;;;;;;;;;;6226433;28;20033;-77
2020/12/05 10:24:09;;;;;;;19.37;11.17;;;;;;;;;;6211684;28;20080;-71
2020/12/05 10:27:09;;;;;;;17.03;11.13;;;;;;;;;;6217689;28;20034;-67
2020/12/05 10:30:10;;;;;;;16.67;11.23;;;;;;;;;;6230329;28;20038;-69
2020/12/05 10:33:10;;;;;;;15.33;10.40;;;;;;;;;;6220868;28;20113;-67
2020/12/05 10:36:10;;;;;;;14.60;10.43;;;;;;;;;;6218299;28;20038;-69
2020/12/05 10:39:11;;;;;;;14.67;9.70;;;;;;;;;;6210724;28;20049;-63
2020/12/05 10:42:11;;;;;;;17.87;10.47;;;;;;;;;;6223337;28;20025;-69
2020/12/05 10:45:12;;;;;;;15.63;9.70;;;;;;;;;;6222461;28;20091;-69
2020/12/05 10:48:12;;;;;;;16.13;10.33;;;;;;;;;;6223466;28;20064;-70
2020/12/05 10:51:12;;;;;;;16.13;9.93;;;;;;;;;;6217803;28;20105;-69
2020/12/05 10:54:13;;;;;;;15.83;10.33;;;;;;;;;;6212170;28;20025;-69
2020/12/05 10:57:13;;;;;;;15.43;10.45;;;;;;;;;;6212763;28;20026;-69
2020/12/05 11:00:13;;;;;;;16.97;10.60;;;;;;;;;;6220866;28;20038;-73
2020/12/05 11:03:13;;;;;;;18.10;10.63;;;;;;;;;;6228593;28;20057;-75
2020/12/05 11:06:21;;;;;;;14.13;9.67;;;;;;;;;;6223280;28;20029;-74
2020/12/05 11:09:21;;;;;;;14.15;9.93;;;;;;;;;;6221343;28;20033;-75
2020/12/05 11:12:21;;;;;;;18.77;11.30;;;;;;;;;;6215684;28;20034;-74
2020/12/05 11:15:21;;;;;;;18.03;10.87;;;;;;;;;;6227161;28;20026;-71
2020/12/05 11:18:22;;;;;;;17.97;10.10;;;;;;;;;;6222479;28;20038;-74
2020/12/05 11:21:22;;;;;;;17.63;10.57;;;;;;;;;;6211477;28;20030;-70
2020/12/05 11:24:22;;;;;;;17.00;10.63;;;;;;;;;;6219088;28;20042;-68
2020/12/05 11:27:22;;;;;;;16.40;10.57;;;;;;;;;;6223222;28;20443;-67
2020/12/05 11:30:23;;;;;;;15.53;10.27;;;;;;;;;;6216583;28;20033;-64
2020/12/05 11:33:23;;;;;;;19.60;11.33;;;;;;;;;;6220891;28;20490;-67
2020/12/05 11:36:23;;;;;;;15.10;10.57;;;;;;;;;;6222514;28;20436;-69
2020/12/05 11:39:23;;;;;;;14.97;10.00;;;;;;;;;;6221039;28;20099;-71
2020/12/05 11:42:27;;;;;;;17.50;10.20;;;;;;;;;;6220563;28;20460;-67
2020/12/05 11:45:28;;;;;;;15.82;10.23;;;;;;;;;;6221599;28;20345;-67
2020/12/05 11:48:28;;;;;;;16.03;10.37;;;;;;;;;;6223510;28;20021;-70
2020/12/05 11:51:29;;;;;;;18.57;10.57;;;;;;;;;;6221644;28;20516;-68
2020/12/05 11:54:29;;;;;;;16.13;10.27;;;;;;;;;;6219889;28;20455;-70
2020/12/05 11:57:29;;;;;;;14.87;9.97;;;;;;;;;;6219492;28;20026;-68
2020/12/05 12:00:29;;;;;;;15.77;10.57;;;;;;;;;;6220448;28;20037;-74
2020/12/05 12:03:30;;;;;;;17.13;10.77;;;;;;;;;;6217031;28;20056;-66
2020/12/05 12:06:30;;;;;;;16.53;10.73;;;;;;;;;;6228863;28;20096;-65
2020/12/05 12:09:30;;;;;;;15.00;9.77;;;;;;;;;;6214636;28;20022;-66
2020/12/05 12:12:31;;;;;;;17.10;10.33;;;;;;;;;;6219571;28;20033;-66
2020/12/05 12:15:31;;;;;;;17.10;10.90;;;;;;;;;;6221432;28;20057;-69
2020/12/05 12:18:31;;;;;;;16.37;10.53;;;;;;;;;;6194043;28;20030;-69
2020/12/05 12:21:31;;;;;;;15.80;10.20;;;;;;;;;;6198228;28;20026;-69
2020/12/05 12:24:32;;;;;;;16.90;9.77;;;;;;;;;;6221412;28;20021;-69
2020/12/05 12:27:32;;;;;;;15.03;10.23;;;;;;;;;;6219133;28;20033;-69
2020/12/05 12:30:32;;;;;;;15.33;9.70;;;;;;;;;;6216047;28;20341;-69
2020/12/05 12:33:33;;;;;;;15.27;9.40;;;;;;;;;;6210776;28;20320;-69
2020/12/05 12:36:36;;;;;;;20.10;13.07;;;;;;;;;;6216381;28;20048;-69
2020/12/05 12:39:36;;;;;;;17.58;11.15;;;;;;;;;;6212951;28;20779;-76
2020/12/05 12:42:37;;;;;;;13.57;10.07;;;;;;;;;;6223609;28;20040;-70
2020/12/05 12:45:37;;;;;;;15.10;10.10;;;;;;;;;;6207479;28;20064;-70
2020/12/05 12:48:39;;;;;;;15.68;10.00;;;;;;;;;;6196754;28;20194;-71
2020/12/05 12:51:40;;;;;;;14.32;9.82;;;;;;;;;;6215931;28;20025;-70
2020/12/05 12:54:40;;;;;;;13.93;10.33;;;;;;;;;;6213605;28;20057;-70
2020/12/05 12:57:40;;;;;;;16.20;9.53;;;;;;;;;;6239103;28;20029;-69
2020/12/05 13:00:41;;;;;;;14.90;9.77;;;;;;;;;;6219727;28;20034;-68
2020/12/05 13:03:41;;;;;;;15.97;10.23;;;;;;;;;;6196648;28;20037;-68
2020/12/05 13:06:41;;;;;;;18.23;10.73;;;;;;;;;;6200429;28;20022;-65
2020/12/05 13:09:41;;;;;;;16.83;10.37;;;;;;;;;;6217651;28;20049;-68
2020/12/05 13:12:42;;;;;;;16.20;10.03;;;;;;;;;;6218965;28;20021;-70
2020/12/05 13:15:42;;;;;;;16.85;10.35;;;;;;;;;;6215815;28;20452;-69
2020/12/05 13:18:43;;;;;;;16.83;11.23;;;;;;;;;;6220465;28;20124;-69
2020/12/05 13:21:43;;;;;;;17.47;11.07;;;;;;;;;;6219436;28;20084;-68
2020/12/05 13:24:43;;;;;;;18.47;11.07;;;;;;;;;;6219962;28;20074;-70
2020/12/05 13:27:44;;;;;;;17.00;10.97;;;;;;;;;;6207046;28;20053;-69
2020/12/05 13:30:44;;;;;;;17.00;10.83;;;;;;;;;;6217244;28;20469;-69
2020/12/05 13:33:44;;;;;;;21.83;11.90;;;;;;;;;;6221033;28;20045;-68
2020/12/05 13:36:45;;;;;;;20.17;11.43;;;;;;;;;;6208961;28;20038;-68
2020/12/05 13:39:45;;;;;;;19.23;12.07;;;;;;;;;;6193464;28;20813;-68
2020/12/05 13:42:45;;;;;;;19.30;11.73;;;;;;;;;;6198885;28;20087;-71
2020/12/05 13:45:45;;;;;;;18.13;12.07;;;;;;;;;;6196460;28;20100;-69
2020/12/05 13:48:46;;;;;;;17.43;12.03;;;;;;;;;;6223543;28;20209;-68
2020/12/05 13:51:46;;;;;;;17.93;12.03;;;;;;;;;;6225084;28;20456;-69
2020/12/05 13:54:46;;;;;;;17.93;12.53;;;;;;;;;;6224765;28;20026;-70
2020/12/05 13:57:47;;;;;;;21.20;13.33;;;;;;;;;;6226259;28;20448;-68
2020/12/05 14:00:47;;;;;;;21.80;13.40;;;;;;;;;;6219123;28;20033;-75
2020/12/05 14:03:47;;;;;;;18.07;11.57;;;;;;;;;;6209229;28;20034;-76
2020/12/05 14:06:47;;;;;;;21.10;12.50;;;;;;;;;;6226672;28;20026;-76
2020/12/05 14:09:48;;;;;;;18.83;11.97;;;;;;;;;;6221778;28;20053;-75
2020/12/05 14:12:48;;;;;;;18.20;11.87;;;;;;;;;;6215826;28;20947;-68
2020/12/05 14:15:48;;;;;;;20.40;13.17;;;;;;;;;;6219414;28;20411;-68
2020/12/05 14:18:49;;;;;;;21.40;12.93;;;;;;;;;;6226478;28;20546;-68
2020/12/05 14:21:49;;;;;;;22.07;12.93;;;;;;;;;;6222631;28;20056;-68
2020/12/05 14:24:49;;;;;;;19.73;13.17;;;;;;;;;;6216444;28;20041;-68
2020/12/05 14:27:49;;;;;;;23.53;13.77;;;;;;;;;;6208984;28;20026;-68
2020/12/05 14:30:50;;;;;;;23.80;13.57;;;;;;;;;;6221826;28;20022;-70
2020/12/05 14:33:50;;;;;;;21.40;14.37;;;;;;;;;;6222666;28;20137;-70
2020/12/05 14:36:51;;;;;;;24.17;13.95;;;;;;;;;;6225805;28;20066;-69
2020/12/05 14:39:55;;;;;;;23.77;14.40;;;;;;;;;;6219163;28;20034;-69
2020/12/05 14:42:55;;;;;;;22.50;14.18;;;;;;;;;;6216893;28;20050;-69
2020/12/05 14:45:55;;;;;;;25.67;15.07;;;;;;;;;;6217670;28;20018;-69
2020/12/05 14:48:55;;;;;;;28.50;15.63;;;;;;;;;;6214993;28;20022;-69
2020/12/05 14:51:56;;;;;;;24.70;15.37;;;;;;;;;;6222217;28;20533;-69
